createdAt,value
2023-05-14T00:02:13.382Z,12.08
2023-05-14T00:04:41.517Z,12.08
2023-05-14T00:07:09.269Z,12.12
2023-05-14T00:09:36.720Z,11.79
2023-05-14T00:12:04.481Z,12.32
2023-05-14T00:14:31.987Z,11.90
2023-05-14T00:16:59.816Z,11.92
2023-05-14T00:19:27.735Z,12.11
2023-05-14T00:21:55.111Z,12.00
2023-05-14T00:24:22.520Z,11.91
2023-05-14T00:26:50.233Z,11.95
2023-05-14T00:29:17.691Z,12.16
2023-05-14T00:31:45.286Z,11.93
2023-05-14T00:34:13.040Z,12.10
2023-05-14T00:36:40.506Z,12.05
2023-05-14T00:39:07.915Z,11.98
2023-05-14T00:41:35.786Z,11.72
2023-05-14T00:44:03.417Z,11.66
2023-05-14T00:46:30.909Z,11.56
2023-05-14T00:48:58.869Z,11.88
2023-05-14T00:51:26.293Z,11.99
2023-05-14T00:53:55.188Z,11.95
2023-05-14T00:56:23.248Z,11.92
2023-05-14T00:58:50.719Z,11.89
2023-05-14T01:01:18.209Z,12.21
2023-05-14T01:03:46.133Z,11.77
2023-05-14T01:06:28.222Z,11.75
2023-05-14T01:09:09.040Z,11.75
2023-05-14T01:11:42.607Z,12.06
2023-05-14T01:14:24.058Z,11.84
2023-05-14T01:16:54.717Z,12.03
2023-05-14T01:19:30.142Z,12.15
2023-05-14T01:21:57.564Z,12.13
2023-05-14T01:24:25.306Z,12.10
2023-05-14T01:26:53.845Z,12.04
2023-05-14T01:29:26.941Z,11.82
2023-05-14T01:31:56.167Z,12.00
2023-05-14T01:34:24.819Z,11.90
2023-05-14T01:36:53.591Z,11.93
2023-05-14T01:39:22.905Z,12.15
2023-05-14T01:41:51.316Z,12.07
2023-05-14T01:44:19.626Z,11.91
2023-05-14T01:46:47.382Z,12.01
2023-05-14T01:49:16.088Z,11.92
2023-05-14T01:51:43.626Z,11.96
2023-05-14T01:54:11.301Z,11.92
2023-05-14T01:56:39.214Z,12.04
2023-05-14T01:59:07.000Z,11.98
2023-05-14T02:01:34.823Z,12.11
2023-05-14T02:04:02.756Z,12.15
2023-05-14T02:06:31.644Z,12.14
2023-05-14T02:08:59.146Z,12.20
2023-05-14T02:11:26.835Z,12.32
2023-05-14T02:13:54.475Z,12.35
2023-05-14T02:16:21.964Z,12.15
2023-05-14T02:18:52.301Z,12.13
2023-05-14T02:21:20.721Z,12.31
2023-05-14T02:23:49.630Z,12.11
2023-05-14T02:26:17.088Z,11.85
2023-05-14T02:28:45.813Z,12.36
2023-05-14T02:31:14.428Z,12.16
2023-05-14T02:33:42.498Z,11.71
2023-05-14T02:36:10.434Z,11.85
2023-05-14T02:38:38.377Z,12.07
2023-05-14T02:41:05.758Z,12.35
2023-05-14T02:43:33.381Z,12.35
2023-05-14T02:46:00.815Z,12.07
2023-05-14T02:48:28.220Z,11.98
2023-05-14T02:50:55.910Z,12.51
2023-05-14T02:53:23.306Z,12.69
2023-05-14T02:55:50.704Z,12.25
2023-05-14T02:58:19.173Z,12.15
2023-05-14T03:00:52.917Z,12.45
2023-05-14T03:03:21.147Z,12.45
2023-05-14T03:05:48.994Z,12.09
2023-05-14T03:08:16.415Z,12.27
2023-05-14T03:10:44.060Z,12.21
2023-05-14T03:13:11.650Z,11.97
2023-05-14T03:15:39.039Z,11.96
2023-05-14T03:18:06.768Z,11.73
2023-05-14T03:20:34.173Z,11.84
2023-05-14T03:23:01.584Z,11.67
2023-05-14T03:25:29.328Z,11.68
2023-05-14T03:27:56.762Z,11.48
2023-05-14T03:30:24.510Z,11.46
2023-05-14T03:32:52.905Z,11.65
2023-05-14T03:35:20.598Z,11.52
2023-05-14T03:37:48.026Z,11.80
2023-05-14T03:40:15.727Z,11.73
2023-05-14T03:42:43.909Z,11.59
2023-05-14T03:45:11.329Z,11.45
2023-05-14T03:47:39.032Z,11.82
2023-05-14T03:50:07.739Z,11.89
2023-05-14T03:52:35.141Z,12.05
2023-05-14T03:55:03.728Z,11.76
2023-05-14T03:57:31.114Z,11.64
2023-05-14T03:59:58.631Z,11.86
2023-05-14T04:02:26.793Z,11.84
2023-05-14T04:04:56.149Z,11.66
2023-05-14T04:07:23.716Z,12.02
2023-05-14T04:09:51.097Z,11.84
2023-05-14T04:12:18.930Z,11.92
2023-05-14T04:14:46.360Z,12.01
2023-05-14T04:17:13.828Z,11.97
2023-05-14T04:19:41.478Z,11.79
2023-05-14T04:22:08.888Z,12.10
2023-05-14T04:24:36.309Z,12.07
2023-05-14T04:27:04.410Z,11.93
2023-05-14T04:29:31.839Z,11.84
2023-05-14T04:31:59.742Z,11.78
2023-05-14T04:34:27.488Z,12.24
2023-05-14T04:36:54.894Z,12.20
2023-05-14T04:39:22.443Z,12.25
2023-05-14T04:41:50.066Z,12.27
2023-05-14T04:44:17.479Z,12.37
2023-05-14T04:46:44.864Z,12.37
2023-05-14T04:49:12.767Z,12.04
2023-05-14T04:51:40.136Z,12.17
2023-05-14T04:54:07.676Z,12.45
2023-05-14T04:56:35.359Z,12.45
2023-05-14T04:59:02.737Z,12.45
2023-05-14T05:01:30.253Z,12.30
2023-05-14T05:03:58.229Z,12.36
2023-05-14T05:06:25.837Z,12.53
2023-05-14T05:08:53.175Z,12.35
2023-05-14T05:11:21.328Z,12.22
2023-05-14T05:13:48.697Z,12.09
2023-05-14T05:16:16.193Z,12.40
2023-05-14T05:18:44.713Z,12.65
2023-05-14T05:21:12.122Z,12.29
2023-05-14T05:23:39.631Z,12.46
2023-05-14T05:26:07.353Z,12.76
2023-05-14T05:28:34.828Z,12.21
2023-05-14T05:31:02.238Z,12.07
2023-05-14T05:33:29.953Z,12.12
2023-05-14T05:35:57.295Z,12.01
2023-05-14T05:38:24.715Z,12.14
2023-05-14T05:40:52.723Z,12.01
2023-05-14T05:43:20.128Z,12.04
2023-05-14T05:45:47.557Z,12.20
2023-05-14T05:48:15.386Z,11.97
2023-05-14T05:50:44.801Z,12.32
2023-05-14T05:53:12.528Z,12.16
2023-05-14T05:55:41.018Z,11.88
2023-05-14T05:58:08.403Z,12.38
2023-05-14T06:00:35.831Z,12.24
2023-05-14T06:03:03.631Z,12.23
2023-05-14T06:05:31.084Z,12.20
2023-05-14T06:07:58.604Z,12.24
2023-05-14T06:10:26.342Z,12.46
2023-05-14T06:12:53.893Z,12.86
2023-05-14T06:15:21.321Z,12.96
2023-05-14T06:17:49.053Z,12.74
2023-05-14T06:20:16.676Z,12.49
2023-05-14T06:22:44.367Z,12.32
2023-05-14T06:25:12.133Z,12.46
2023-05-14T06:27:39.515Z,12.48
2023-05-14T06:30:07.488Z,12.33
2023-05-14T06:32:35.222Z,12.47
2023-05-14T06:35:02.741Z,12.38
2023-05-14T06:37:30.159Z,12.39
2023-05-14T06:39:58.113Z,12.41
2023-05-14T06:42:26.554Z,12.21
2023-05-14T06:44:54.615Z,12.06
2023-05-14T06:47:22.402Z,11.61
2023-05-14T06:49:50.070Z,11.81
2023-05-14T06:52:17.466Z,11.87
2023-05-14T06:54:45.136Z,11.64
2023-05-14T06:57:12.526Z,11.85
2023-05-14T06:59:39.931Z,11.59
2023-05-14T07:02:07.878Z,11.92
2023-05-14T07:04:36.492Z,12.02
2023-05-14T07:07:04.255Z,12.39
2023-05-14T07:09:31.930Z,12.35
2023-05-14T07:11:59.384Z,11.99
2023-05-14T07:14:26.799Z,12.29
2023-05-14T07:16:54.494Z,12.19
2023-05-14T07:19:22.349Z,12.11
2023-05-14T07:21:49.735Z,12.19
2023-05-14T07:24:17.481Z,11.95
2023-05-14T07:26:45.003Z,12.21
2023-05-14T07:29:12.473Z,12.34
2023-05-14T07:31:40.422Z,12.30
2023-05-14T07:34:08.629Z,12.28
2023-05-14T07:36:36.038Z,12.24
2023-05-14T07:39:03.739Z,12.47
2023-05-14T07:41:31.127Z,12.64
2023-05-14T07:43:58.494Z,12.55
2023-05-14T07:46:26.256Z,12.84
2023-05-14T07:48:53.654Z,12.98
2023-05-14T07:51:21.016Z,12.85
2023-05-14T07:53:48.736Z,12.92
2023-05-14T07:56:16.123Z,12.71
2023-05-14T07:58:43.746Z,13.19
2023-05-14T08:01:11.626Z,13.13
2023-05-14T08:03:39.538Z,13.29
2023-05-14T08:06:07.005Z,13.68
2023-05-14T08:08:34.431Z,13.67
2023-05-14T08:11:03.926Z,13.42
2023-05-14T08:13:31.394Z,13.39
2023-05-14T08:15:58.984Z,13.25
2023-05-14T08:18:29.755Z,13.28
2023-05-14T08:20:57.346Z,13.17
2023-05-14T08:23:26.474Z,13.29
2023-05-14T08:25:54.167Z,13.25
2023-05-14T08:28:30.250Z,13.12
2023-05-14T08:30:58.165Z,13.47
2023-05-14T08:33:25.660Z,13.35
2023-05-14T08:35:53.369Z,13.51
2023-05-14T08:38:21.364Z,13.27
2023-05-14T08:40:50.146Z,13.14
2023-05-14T08:43:20.814Z,13.04
2023-05-14T08:45:53.015Z,13.24
2023-05-14T08:48:22.452Z,13.40
2023-05-14T08:50:50.636Z,13.42
2023-05-14T08:53:18.322Z,13.50
2023-05-14T08:55:48.725Z,13.25
2023-05-14T08:58:16.885Z,13.46
2023-05-14T09:00:44.284Z,13.81
2023-05-14T09:03:12.605Z,13.39
2023-05-14T09:05:41.160Z,13.49
2023-05-14T09:08:08.507Z,13.30
2023-05-14T09:10:36.134Z,13.58
2023-05-14T09:13:04.224Z,13.40
2023-05-14T09:15:32.974Z,13.44
2023-05-14T09:18:00.502Z,13.50
2023-05-14T09:20:28.684Z,13.35
2023-05-14T09:22:56.737Z,13.32
2023-05-14T09:25:27.264Z,13.34
2023-05-14T09:27:57.333Z,13.53
2023-05-14T09:30:26.962Z,13.52
2023-05-14T09:32:55.134Z,13.76
2023-05-14T09:35:24.023Z,13.90
2023-05-14T09:37:55.224Z,13.84
2023-05-14T09:40:24.377Z,13.71
2023-05-14T09:42:52.322Z,13.76
2023-05-14T09:45:19.757Z,13.81
2023-05-14T09:47:47.554Z,13.57
2023-05-14T09:50:15.178Z,14.17
2023-05-14T09:52:42.594Z,14.20
2023-05-14T09:55:10.576Z,14.03
2023-05-14T09:57:38.148Z,14.32
2023-05-14T10:00:06.794Z,13.95
2023-05-14T10:02:38.800Z,14.37
2023-05-14T10:05:07.580Z,14.38
2023-05-14T10:07:44.553Z,14.17
2023-05-14T10:10:16.683Z,13.67
2023-05-14T10:12:49.057Z,13.85
2023-05-14T10:15:21.169Z,14.06
2023-05-14T10:17:56.693Z,14.19
2023-05-14T10:20:27.190Z,14.28
2023-05-14T10:22:54.630Z,14.25
2023-05-14T10:25:22.475Z,13.93
2023-05-14T10:27:50.884Z,14.20
2023-05-14T10:30:21.749Z,14.19
2023-05-14T10:32:49.576Z,14.33
2023-05-14T10:35:22.951Z,14.47
2023-05-14T10:37:51.592Z,14.68
2023-05-14T10:40:19.591Z,14.35
2023-05-14T10:42:47.062Z,14.48
2023-05-14T10:45:15.648Z,14.51
2023-05-14T10:47:45.924Z,14.52
2023-05-14T10:50:16.035Z,14.57
2023-05-14T10:52:44.924Z,14.20
2023-05-14T10:55:16.605Z,14.20
2023-05-14T10:57:46.141Z,14.24
2023-05-14T11:00:15.185Z,14.28
2023-05-14T11:02:44.500Z,14.18
2023-05-14T11:05:16.058Z,14.00
2023-05-14T11:07:45.632Z,14.14
2023-05-14T11:10:22.432Z,14.20
2023-05-14T11:12:51.068Z,14.20
2023-05-14T11:15:21.066Z,13.96
2023-05-14T11:17:49.943Z,14.27
2023-05-14T11:20:18.038Z,14.01
2023-05-14T11:22:47.302Z,14.19
2023-05-14T11:25:15.226Z,14.18
2023-05-14T11:27:45.018Z,14.36
2023-05-14T11:30:20.165Z,14.23
2023-05-14T11:32:49.053Z,13.69
2023-05-14T11:35:17.813Z,13.71
2023-05-14T11:37:54.620Z,13.69
2023-05-14T11:40:22.813Z,13.54
2023-05-14T11:42:52.544Z,13.68
2023-05-14T11:45:26.812Z,13.74
2023-05-14T11:47:57.470Z,13.87
2023-05-14T11:50:25.102Z,13.53
2023-05-14T11:52:57.654Z,13.28
2023-05-14T11:55:25.499Z,13.70
2023-05-14T11:57:52.905Z,13.70
2023-05-14T12:00:21.716Z,13.59
2023-05-14T12:02:50.447Z,13.72
2023-05-14T12:05:18.704Z,13.43
2023-05-14T12:07:46.393Z,13.64
2023-05-14T12:10:14.115Z,13.40
2023-05-14T12:12:45.622Z,14.06
2023-05-14T12:15:13.803Z,14.06
2023-05-14T12:17:41.873Z,14.00
2023-05-14T12:20:11.061Z,14.35
2023-05-14T12:22:39.034Z,13.86
2023-05-14T12:25:12.980Z,13.71
2023-05-14T12:27:40.496Z,13.83
2023-05-14T12:32:40.918Z,13.63
2023-05-14T12:35:09.170Z,13.75
2023-05-14T12:37:37.555Z,13.26
2023-05-14T12:40:09.203Z,13.32
2023-05-14T12:42:37.229Z,13.32
2023-05-14T12:45:08.050Z,13.04
2023-05-14T12:47:36.480Z,13.24
2023-05-14T12:50:04.804Z,13.08
2023-05-14T12:52:38.394Z,12.71
2023-05-14T12:55:10.170Z,12.95
2023-05-14T12:57:38.885Z,13.10
2023-05-14T13:00:09.884Z,12.91
2023-05-14T13:02:42.534Z,12.86
2023-05-14T13:05:12.143Z,13.11
2023-05-14T13:07:39.693Z,13.36
2023-05-14T13:10:07.567Z,13.09
2023-05-14T13:12:35.348Z,12.82
2023-05-14T13:15:02.742Z,12.70
2023-05-14T13:17:32.189Z,13.03
2023-05-14T13:19:59.872Z,12.95
2023-05-14T13:22:27.242Z,13.29
2023-05-14T13:24:54.605Z,13.25
2023-05-14T13:27:22.233Z,13.17
2023-05-14T13:29:49.594Z,12.95
2023-05-14T13:32:16.972Z,13.03
2023-05-14T13:34:44.673Z,13.11
2023-05-14T13:37:12.087Z,13.00
2023-05-14T13:39:41.054Z,13.11
2023-05-14T13:42:09.089Z,13.10
2023-05-14T13:44:36.838Z,12.97
2023-05-14T13:47:04.463Z,13.04
2023-05-14T13:49:32.214Z,12.74
2023-05-14T13:51:59.592Z,12.70
2023-05-14T13:54:27.011Z,12.94
2023-05-14T13:56:54.728Z,13.04
2023-05-14T13:59:24.542Z,13.02
2023-05-14T14:01:52.080Z,12.68
2023-05-14T14:04:20.029Z,12.65
2023-05-14T14:06:47.546Z,12.83
2023-05-14T14:09:15.031Z,12.52
2023-05-14T14:11:42.746Z,12.85
2023-05-14T14:14:10.159Z,12.92
2023-05-14T14:16:37.692Z,13.31
2023-05-14T14:19:05.703Z,13.51
2023-05-14T14:21:34.135Z,13.18
2023-05-14T14:24:02.187Z,13.31
2023-05-14T14:26:29.906Z,12.82
2023-05-14T14:28:57.342Z,12.78
2023-05-14T14:31:24.908Z,12.93
2023-05-14T14:33:52.698Z,13.08
2023-05-14T14:36:20.106Z,12.88
2023-05-14T14:38:47.514Z,12.76
2023-05-14T14:41:15.355Z,12.78
2023-05-14T14:43:43.530Z,12.89
2023-05-14T14:46:11.180Z,12.72
2023-05-14T14:48:39.022Z,12.93
2023-05-14T14:51:07.624Z,12.76
2023-05-14T14:53:36.061Z,12.84
2023-05-14T14:56:04.128Z,12.99
2023-05-14T14:58:31.776Z,12.85
2023-05-14T15:01:01.187Z,12.86
2023-05-14T15:03:29.365Z,12.81
2023-05-14T15:05:56.966Z,12.93
2023-05-14T15:08:27.989Z,12.99
2023-05-14T15:10:56.271Z,12.70
2023-05-14T15:13:24.620Z,12.56
2023-05-14T15:15:52.631Z,12.74
2023-05-14T15:18:20.630Z,12.51
2023-05-14T15:20:48.334Z,12.71
2023-05-14T15:23:15.744Z,12.68
2023-05-14T15:25:43.424Z,12.48
2023-05-14T15:28:10.938Z,12.78
2023-05-14T15:30:38.383Z,12.72
2023-05-14T15:33:08.558Z,12.86
2023-05-14T15:35:36.593Z,12.45
2023-05-14T15:38:04.202Z,12.48
2023-05-14T15:40:33.142Z,12.42
2023-05-14T15:43:00.716Z,12.20
2023-05-14T15:45:28.321Z,12.53
2023-05-14T15:47:56.037Z,12.54
2023-05-14T15:50:23.753Z,12.58
2023-05-14T15:52:51.338Z,12.40
2023-05-14T15:55:19.140Z,12.35
2023-05-14T15:57:46.525Z,12.48
2023-05-14T16:00:14.424Z,12.53
2023-05-14T16:02:42.136Z,12.35
2023-05-14T16:05:09.756Z,12.48
2023-05-14T16:07:37.477Z,12.34
2023-05-14T16:10:06.107Z,12.57
2023-05-14T16:12:33.590Z,12.96
2023-05-14T16:15:01.204Z,12.69
2023-05-14T16:17:30.490Z,12.68
2023-05-14T16:19:57.957Z,12.41
2023-05-14T16:22:25.386Z,12.54
2023-05-14T16:24:53.112Z,12.65
2023-05-14T16:27:20.514Z,12.37
2023-05-14T16:29:47.997Z,12.58
2023-05-14T16:32:15.750Z,12.42
2023-05-14T16:34:49.714Z,12.25
2023-05-14T16:37:19.880Z,12.35
2023-05-14T16:39:47.518Z,12.59
2023-05-14T16:42:15.015Z,12.70
2023-05-14T16:44:42.752Z,12.60
2023-05-14T16:47:10.436Z,12.28
2023-05-14T16:49:37.824Z,12.54
2023-05-14T16:52:06.229Z,12.72
2023-05-14T16:54:33.616Z,12.47
2023-05-14T16:57:01.116Z,12.75
2023-05-14T16:59:28.884Z,12.54
2023-05-14T17:01:56.316Z,12.31
2023-05-14T17:04:26.571Z,12.12
2023-05-14T17:06:54.643Z,12.14
2023-05-14T17:09:22.277Z,12.49
2023-05-14T17:11:50.040Z,12.53
2023-05-14T17:14:17.774Z,12.61
2023-05-14T17:16:45.353Z,12.61
2023-05-14T17:19:12.815Z,12.59
2023-05-14T17:21:40.614Z,13.19
2023-05-14T17:24:08.174Z,12.91
2023-05-14T17:26:35.740Z,12.82
2023-05-14T17:29:03.619Z,12.92
2023-05-14T17:31:31.233Z,12.70
2023-05-14T17:33:58.887Z,12.65
2023-05-14T17:36:28.634Z,12.94
2023-05-14T17:38:56.097Z,12.46
2023-05-14T17:41:23.576Z,12.46
2023-05-14T17:43:52.529Z,12.53
2023-05-14T17:46:19.996Z,12.76
2023-05-14T17:49:01.392Z,12.86
2023-05-14T17:51:32.086Z,12.77
2023-05-14T17:53:59.672Z,12.87
2023-05-14T17:56:27.127Z,13.18
2023-05-14T17:58:54.787Z,13.42
2023-05-14T18:01:22.198Z,13.57
2023-05-14T18:03:49.974Z,13.97
2023-05-14T18:06:17.594Z,14.00
2023-05-14T18:08:45.663Z,13.83
2023-05-14T18:11:13.408Z,13.34
2023-05-14T18:13:41.088Z,12.87
2023-05-14T18:16:08.712Z,13.08
2023-05-14T18:18:36.490Z,13.14
2023-05-14T18:21:04.683Z,13.41
2023-05-14T18:23:32.360Z,13.34
2023-05-14T18:26:00.517Z,12.98
2023-05-14T18:28:28.591Z,12.81
2023-05-14T18:30:56.561Z,13.30
2023-05-14T18:33:24.304Z,13.31
2023-05-14T18:35:52.110Z,13.30
2023-05-14T18:38:20.003Z,13.25
2023-05-14T18:40:47.957Z,13.62
2023-05-14T18:43:16.753Z,13.44
2023-05-14T18:45:48.445Z,13.14
2023-05-14T18:48:16.914Z,13.31
2023-05-14T18:50:47.766Z,13.43
2023-05-14T18:53:15.520Z,13.43
2023-05-14T18:55:43.757Z,13.55
2023-05-14T18:58:12.148Z,13.80
2023-05-14T19:00:39.542Z,13.53
2023-05-14T19:03:07.569Z,13.39
2023-05-14T19:05:35.505Z,12.93
2023-05-14T19:08:03.818Z,12.73
2023-05-14T19:10:35.033Z,12.90
2023-05-14T19:13:03.351Z,12.97
2023-05-14T19:15:30.868Z,12.96
2023-05-14T19:17:58.590Z,12.89
2023-05-14T19:20:26.185Z,13.28
2023-05-14T19:22:53.842Z,13.19
2023-05-14T19:25:21.537Z,12.96
2023-05-14T19:27:51.299Z,12.87
2023-05-14T19:30:20.218Z,13.19
2023-05-14T19:32:48.103Z,13.08
2023-05-14T19:35:15.729Z,13.08
2023-05-14T19:37:43.142Z,13.04
2023-05-14T19:40:11.357Z,13.12
2023-05-14T19:42:38.915Z,13.20
2023-05-14T19:45:06.674Z,13.25
2023-05-14T19:47:35.065Z,13.35
2023-05-14T19:50:04.972Z,13.31
2023-05-14T19:52:33.349Z,13.27
2023-05-14T19:55:01.793Z,12.90
2023-05-14T19:57:30.586Z,13.00
2023-05-14T19:59:59.015Z,12.94
2023-05-14T20:02:26.940Z,12.85
2023-05-14T20:04:55.700Z,12.90
2023-05-14T20:07:25.041Z,12.85
2023-05-14T20:09:53.352Z,13.26
2023-05-14T20:12:21.427Z,13.33
2023-05-14T20:14:49.580Z,13.28
2023-05-14T20:17:17.390Z,13.12
2023-05-14T20:19:45.719Z,13.18
2023-05-14T20:22:13.431Z,13.36
2023-05-14T20:24:41.665Z,13.30
2023-05-14T20:27:13.124Z,13.01
2023-05-14T20:29:41.409Z,13.30
2023-05-14T20:35:13.252Z,13.35
2023-05-14T20:37:41.385Z,13.29
2023-05-14T20:40:12.781Z,13.32
2023-05-14T20:42:40.217Z,13.16
2023-05-14T20:45:08.672Z,12.84
2023-05-14T20:47:36.431Z,13.09
2023-05-14T20:50:04.725Z,13.11
2023-05-14T20:52:32.542Z,13.30
2023-05-14T20:55:01.820Z,13.31
2023-05-14T20:57:29.803Z,13.07
2023-05-14T20:59:57.804Z,12.99
2023-05-14T21:02:25.349Z,12.91
2023-05-14T21:04:52.881Z,13.31
2023-05-14T21:07:20.621Z,13.33
2023-05-14T21:09:52.724Z,13.07
2023-05-14T21:12:21.361Z,13.38
2023-05-14T21:14:49.108Z,13.20
2023-05-14T21:17:16.535Z,13.62
2023-05-14T21:19:43.965Z,13.37
2023-05-14T21:22:12.573Z,13.20
2023-05-14T21:24:39.923Z,13.62
2023-05-14T21:27:07.336Z,13.32
2023-05-14T21:29:35.044Z,13.27
2023-05-14T21:32:02.514Z,13.05
2023-05-14T21:34:31.877Z,12.88
2023-05-14T21:36:59.850Z,12.91
2023-05-14T21:39:27.215Z,12.96
2023-05-14T21:41:54.641Z,12.93
2023-05-14T21:44:22.321Z,12.95
2023-05-14T21:46:49.725Z,13.01
2023-05-14T21:49:17.999Z,13.10
2023-05-14T21:51:53.073Z,13.05
2023-05-14T21:54:21.114Z,12.75
2023-05-14T21:56:49.151Z,13.09
2023-05-14T21:59:16.765Z,13.24
2023-05-14T22:02:06.416Z,13.22
2023-05-14T22:04:48.268Z,13.46
2023-05-14T22:07:15.885Z,13.63
2023-05-14T22:09:43.801Z,13.54
2023-05-14T22:12:11.527Z,13.68
2023-05-14T22:14:39.333Z,13.50
2023-05-14T22:17:07.447Z,13.84
2023-05-14T22:19:35.191Z,13.68
2023-05-14T22:22:03.140Z,13.51
2023-05-14T22:24:31.162Z,13.71
2023-05-14T22:26:59.075Z,13.70
2023-05-14T22:29:26.684Z,13.64
2023-05-14T22:31:54.396Z,13.51
2023-05-14T22:34:21.777Z,13.57
2023-05-14T22:36:49.163Z,13.71
2023-05-14T22:39:19.204Z,13.65
2023-05-14T22:41:46.626Z,13.46
2023-05-14T22:44:14.168Z,13.84
2023-05-14T22:46:42.469Z,13.61
2023-05-14T22:49:09.908Z,13.79
2023-05-14T22:51:37.280Z,13.84
2023-05-14T22:54:05.342Z,14.12
2023-05-14T22:56:32.788Z,14.24
2023-05-14T22:59:00.407Z,14.03
2023-05-14T23:01:29.262Z,13.83
2023-05-14T23:03:56.760Z,14.26
2023-05-14T23:06:25.241Z,13.96
2023-05-14T23:08:52.952Z,13.92
2023-05-14T23:11:21.416Z,14.10
2023-05-14T23:13:48.822Z,13.88
2023-05-14T23:16:16.536Z,14.41
2023-05-14T23:18:44.235Z,14.41
2023-05-14T23:21:12.828Z,14.48
2023-05-14T23:23:40.476Z,14.30
2023-05-14T23:26:07.867Z,13.90
2023-05-14T23:28:35.225Z,14.20
2023-05-14T23:31:03.102Z,13.60
2023-05-14T23:33:30.690Z,13.98
2023-05-14T23:35:58.211Z,13.71
2023-05-14T23:38:25.988Z,13.67
2023-05-14T23:40:53.448Z,13.62
2023-05-14T23:43:20.851Z,13.63
2023-05-14T23:45:48.624Z,13.28
2023-05-14T23:48:15.998Z,13.59
2023-05-14T23:50:43.946Z,13.91
2023-05-14T23:53:11.610Z,13.66
2023-05-14T23:55:39.039Z,13.45
2023-05-14T23:58:06.512Z,13.22
